Time;durP1;ratioP1;P1;durP2;ratioP2;P2;SDS_P1;SDS_P2;PMS_P1;PMS_P2;Temp;Humidity;BMP_temperature;BMP_pressure;BME280_temperature;BME280_humidity;BME280_pressure;Samples;Min_cycle;Max_cycle;Signal;HPM_P1;HPM_P2
2023/07/24 00:00:13;;;;;;;7.63;4.78;;;22.80;97.60;;;;;;5067120;28;20231;-75
2023/07/24 00:03:04;;;;;;;6.78;5.38;;;22.70;98.40;;;;;;5066267;28;20229;-75
2023/07/24 00:05:53;;;;;;;8.30;5.57;;;22.70;97.80;;;;;;5075254;28;20234;-75
2023/07/24 00:08:42;;;;;;;10.50;5.45;;;22.70;97.70;;;;;;5067199;28;20211;-75
2023/07/24 00:11:31;;;;;;;10.57;5.60;;;22.70;98.20;;;;;;5070119;28;20242;-76
2023/07/24 00:14:20;;;;;;;9.02;5.45;;;22.70;97.70;;;;;;5068658;28;20310;-76
2023/07/24 00:17:09;;;;;;;8.30;5.53;;;22.60;97.70;;;;;;5080062;28;20227;-76
2023/07/24 00:19:59;;;;;;;8.32;6.00;;;22.60;97.80;;;;;;5077679;28;20216;-76
2023/07/24 00:22:49;;;;;;;9.00;5.95;;;22.60;97.80;;;;;;5081708;28;20230;-75
2023/07/24 00:25:38;;;;;;;7.50;5.15;;;22.50;98.10;;;;;;5068222;28;20212;-78
2023/07/24 00:28:27;;;;;;;8.88;6.03;;;22.50;98.50;;;;;;5084646;28;20683;-75
2023/07/24 00:31:16;;;;;;;8.50;5.28;;;22.60;99.20;;;;;;5076793;28;20251;-76
2023/07/24 00:34:05;;;;;;;8.10;5.88;;;22.50;98.60;;;;;;5062102;28;20683;-75
2023/07/24 00:36:56;;;;;;;7.40;5.63;;;22.50;98.80;;;;;;5074953;28;20257;-74
2023/07/24 00:39:45;;;;;;;14.13;5.95;;;22.50;98.70;;;;;;5068797;28;20218;-74
2023/07/24 00:42:34;;;;;;;8.48;5.25;;;22.60;99.10;;;;;;5060899;28;20228;-73
2023/07/24 00:45:24;;;;;;;7.78;6.00;;;22.50;98.70;;;;;;5046409;28;20231;-74
2023/07/24 00:48:15;;;;;;;6.70;5.63;;;22.50;98.80;;;;;;5068288;28;20813;-74
2023/07/24 00:51:04;;;;;;;7.45;5.25;;;22.50;99.00;;;;;;5075288;28;20262;-73
2023/07/24 00:53:57;;;;;;;6.55;5.50;;;22.40;98.90;;;;;;5065199;28;20235;-73
2023/07/24 00:56:47;;;;;;;8.82;6.05;;;22.40;98.80;;;;;;5080723;28;20320;-74
2023/07/24 00:59:36;;;;;;;11.48;6.05;;;22.40;98.70;;;;;;5062477;28;20710;-73
2023/07/24 01:02:26;;;;;;;7.45;5.63;;;22.40;98.90;;;;;;5057100;28;20224;-73
2023/07/24 01:05:15;;;;;;;7.53;5.32;;;22.40;98.80;;;;;;5062460;28;20227;-73
2023/07/24 01:08:05;;;;;;;6.72;5.47;;;22.40;98.80;;;;;;5071432;28;20228;-77
2023/07/24 01:10:59;;;;;;;11.40;5.70;;;22.30;99.10;;;;;;5078241;28;20270;-77
2023/07/24 01:13:57;;;;;;;12.35;5.95;;;22.30;98.60;;;;;;5078562;28;20800;-77
2023/07/24 01:16:49;;;;;;;7.68;5.05;;;22.30;98.90;;;;;;5070680;28;20350;-77
2023/07/24 01:19:42;;;;;;;7.47;5.53;;;22.30;98.70;;;;;;5070772;28;20228;-77
2023/07/24 01:22:40;;;;;;;7.82;5.30;;;22.30;98.50;;;;;;5060784;28;20306;-76
2023/07/24 01:25:35;;;;;;;9.18;5.00;;;22.30;98.40;;;;;;5062633;28;20276;-75
2023/07/24 01:28:26;;;;;;;9.48;5.20;;;22.20;98.70;;;;;;5066221;28;20224;-77
2023/07/24 01:31:16;;;;;;;8.32;5.10;;;22.20;98.40;;;;;;5075151;28;20227;-76
2023/07/24 01:34:05;;;;;;;12.35;4.93;;;22.30;98.00;;;;;;5067809;28;20247;-77
2023/07/24 01:36:54;;;;;;;8.80;5.25;;;22.30;97.90;;;;;;5075008;28;20224;-77
2023/07/24 01:39:44;;;;;;;6.25;5.30;;;22.30;98.30;;;;;;5067794;28;20251;-77
2023/07/24 01:42:37;;;;;;;6.82;4.72;;;22.30;97.90;;;;;;5055185;28;20211;-78
2023/07/24 01:45:27;;;;;;;5.45;4.85;;;22.30;97.30;;;;;;5058354;28;20300;-77
2023/07/24 01:48:16;;;;;;;8.02;5.10;;;22.30;97.10;;;;;;5067946;28;20315;-77
2023/07/24 01:51:05;;;;;;;7.65;4.93;;;22.30;96.90;;;;;;5074679;28;20235;-78
2023/07/24 01:53:54;;;;;;;6.53;4.40;;;22.30;96.60;;;;;;5062538;28;20227;-78
2023/07/24 01:56:43;;;;;;;6.88;4.60;;;22.30;96.60;;;;;;5060000;28;20227;-77
2023/07/24 01:59:32;;;;;;;6.47;4.28;;;22.30;96.00;;;;;;5064366;28;20272;-78
2023/07/24 02:02:23;;;;;;;8.40;4.40;;;22.30;96.00;;;;;;5058193;28;20231;-78
2023/07/24 02:05:12;;;;;;;8.00;4.57;;;22.30;96.00;;;;;;5058636;28;20219;-78
2023/07/24 02:08:03;;;;;;;6.95;4.50;;;22.30;95.20;;;;;;5063120;28;20257;-77
2023/07/24 02:10:52;;;;;;;8.68;4.38;;;22.30;95.10;;;;;;5073945;28;20226;-77
2023/07/24 02:13:41;;;;;;;7.75;4.53;;;22.30;95.40;;;;;;5063572;28;20235;-77
2023/07/24 02:16:30;;;;;;;7.80;4.43;;;22.40;95.40;;;;;;5064936;28;20231;-78
2023/07/24 02:19:22;;;;;;;7.80;4.28;;;22.30;95.00;;;;;;5051589;28;20231;-78
2023/07/24 02:22:11;;;;;;;6.80;4.30;;;22.30;94.90;;;;;;5070351;28;20223;-77
2023/07/24 02:24:59;;;;;;;9.30;3.65;;;22.40;95.30;;;;;;5060488;28;20464;-76
2023/07/24 02:27:49;;;;;;;9.20;4.18;;;22.30;95.20;;;;;;5064099;28;20216;-76
2023/07/24 02:30:39;;;;;;;5.35;3.95;;;22.20;94.10;;;;;;5064255;28;20243;-77
2023/07/24 02:33:28;;;;;;;7.93;4.05;;;22.20;94.10;;;;;;5074978;28;20219;-75
2023/07/24 02:36:19;;;;;;;6.22;3.70;;;22.10;93.80;;;;;;5052725;28;20266;-75
2023/07/24 02:39:08;;;;;;;7.32;4.20;;;22.10;94.60;;;;;;5059529;28;20812;-76
2023/07/24 02:41:57;;;;;;;7.43;3.50;;;22.10;94.10;;;;;;5068964;28;20235;-75
2023/07/24 02:44:45;;;;;;;13.32;4.22;;;22.00;93.80;;;;;;5062670;28;20226;-75
2023/07/24 02:47:35;;;;;;;8.68;4.03;;;22.10;93.80;;;;;;5068550;28;20224;-76
2023/07/24 02:50:24;;;;;;;5.93;3.88;;;22.10;93.80;;;;;;5069556;28;20235;-75
2023/07/24 02:53:14;;;;;;;5.38;3.85;;;22.10;93.90;;;;;;5065789;28;20250;-74
2023/07/24 02:56:03;;;;;;;6.40;3.88;;;22.00;94.20;;;;;;5073982;28;20273;-74
2023/07/24 02:58:52;;;;;;;6.82;4.03;;;22.00;94.40;;;;;;5066902;28;20232;-74
2023/07/24 03:01:41;;;;;;;7.05;3.80;;;22.00;94.70;;;;;;5064424;28;20346;-73
2023/07/24 03:04:31;;;;;;;8.25;3.83;;;22.00;95.10;;;;;;5055899;28;20311;-74
2023/07/24 03:07:20;;;;;;;6.57;3.97;;;22.00;94.90;;;;;;5059937;28;20821;-75
2023/07/24 03:10:11;;;;;;;7.65;4.13;;;21.90;94.90;;;;;;5059559;28;20235;-76
2023/07/24 03:13:00;;;;;;;5.35;4.00;;;22.00;95.10;;;;;;5069768;28;20714;-74
2023/07/24 03:15:53;;;;;;;5.60;3.72;;;21.90;95.40;;;;;;5079865;28;20338;-75
2023/07/24 03:18:42;;;;;;;10.13;4.10;;;22.00;94.90;;;;;;5062504;28;20227;-75
2023/07/24 03:21:31;;;;;;;9.10;4.03;;;21.90;95.10;;;;;;5064643;28;20234;-75
2023/07/24 03:24:20;;;;;;;8.70;3.88;;;22.00;95.70;;;;;;5053698;28;20223;-74
2023/07/24 03:27:11;;;;;;;7.05;3.50;;;21.90;94.80;;;;;;5073932;28;20220;-74
2023/07/24 03:30:00;;;;;;;6.88;3.85;;;21.90;95.30;;;;;;5077154;28;20235;-74
2023/07/24 03:32:49;;;;;;;5.22;3.25;;;22.00;95.90;;;;;;5073022;28;20238;-74
2023/07/24 03:35:39;;;;;;;4.80;3.45;;;21.90;95.30;;;;;;5060031;28;20245;-76
2023/07/24 03:38:27;;;;;;;4.80;3.20;;;21.90;95.80;;;;;;5065068;28;20232;-75
2023/07/24 03:41:16;;;;;;;5.90;3.20;;;21.90;95.70;;;;;;5076335;28;20296;-78
2023/07/24 03:44:07;;;;;;;6.38;3.35;;;22.00;95.50;;;;;;5078318;28;20238;-77
2023/07/24 03:46:58;;;;;;;5.40;3.67;;;22.00;95.30;;;;;;5067632;28;20349;-76
2023/07/24 03:49:52;;;;;;;5.07;3.33;;;22.00;95.30;;;;;;5085812;28;20215;-75
2023/07/24 03:52:41;;;;;;;5.05;3.20;;;22.00;95.30;;;;;;5065921;28;20216;-76
2023/07/24 03:55:30;;;;;;;5.15;3.13;;;22.00;95.40;;;;;;5081419;28;20216;-76
2023/07/24 03:58:19;;;;;;;5.97;3.55;;;22.00;95.20;;;;;;5082540;28;20227;-76
2023/07/24 04:01:09;;;;;;;6.45;3.33;;;22.00;95.50;;;;;;5082430;28;20211;-76
2023/07/24 04:03:59;;;;;;;5.22;3.67;;;22.00;96.10;;;;;;5068253;28;20226;-74
2023/07/24 04:06:49;;;;;;;8.52;3.55;;;22.10;96.10;;;;;;5057711;28;20228;-75
2023/07/24 04:09:38;;;;;;;5.32;3.30;;;22.00;95.80;;;;;;5082813;28;20210;-74
2023/07/24 04:12:27;;;;;;;4.65;3.33;;;22.00;96.40;;;;;;5073628;28;20219;-75
2023/07/24 04:15:16;;;;;;;4.45;3.35;;;22.00;96.60;;;;;;5080336;28;20234;-74
2023/07/24 04:18:06;;;;;;;6.45;3.30;;;22.00;96.10;;;;;;5079682;28;20215;-73
2023/07/24 04:20:56;;;;;;;4.30;3.17;;;22.00;96.50;;;;;;5070912;28;20306;-76
2023/07/24 04:23:46;;;;;;;9.80;3.25;;;22.00;96.30;;;;;;5065664;28;20907;-76
2023/07/24 04:26:35;;;;;;;4.93;3.53;;;22.00;95.90;;;;;;5071116;28;20276;-76
2023/07/24 04:29:26;;;;;;;4.55;3.42;;;22.10;96.90;;;;;;5051383;28;20315;-76
2023/07/24 04:32:14;;;;;;;6.43;3.40;;;22.10;96.00;;;;;;5073083;28;20223;-74
2023/07/24 04:35:05;;;;;;;5.00;3.55;;;22.20;97.50;;;;;;5074774;28;20555;-71
2023/07/24 04:37:54;;;;;;;4.13;3.53;;;22.20;97.00;;;;;;5060255;28;20227;-74
2023/07/24 04:40:45;;;;;;;4.38;3.30;;;22.30;96.50;;;;;;5065027;28;20226;-76
2023/07/24 04:43:36;;;;;;;7.18;3.45;;;22.20;97.00;;;;;;5073684;28;20699;-76
2023/07/24 04:46:25;;;;;;;6.50;3.40;;;22.20;96.20;;;;;;5065788;28;20603;-74
2023/07/24 04:49:14;;;;;;;7.30;3.70;;;22.20;96.80;;;;;;5077562;28;20242;-74
2023/07/24 04:52:06;;;;;;;8.30;3.80;;;22.10;96.10;;;;;;5081758;28;20726;-73
2023/07/24 04:54:54;;;;;;;7.35;3.88;;;22.20;98.10;;;;;;5084539;28;20227;-74
2023/07/24 04:57:43;;;;;;;6.05;3.28;;;22.30;97.10;;;;;;5071077;28;20231;-74
2023/07/24 05:00:32;;;;;;;7.00;3.70;;;22.40;96.10;;;;;;5082785;28;20220;-74
2023/07/24 05:03:21;;;;;;;4.20;3.53;;;22.50;96.20;;;;;;5077718;28;20235;-74
2023/07/24 05:06:10;;;;;;;7.43;3.90;;;22.60;95.20;;;;;;5070941;28;20412;-74
2023/07/24 05:09:00;;;;;;;7.00;3.42;;;22.90;95.50;;;;;;5076261;28;20219;-73
2023/07/24 05:11:49;;;;;;;6.55;3.72;;;23.10;96.20;;;;;;5060701;28;20319;-72
2023/07/24 05:14:38;;;;;;;9.90;3.72;;;23.10;95.20;;;;;;5071787;28;20235;-73
2023/07/24 05:17:27;;;;;;;8.95;3.63;;;23.00;96.30;;;;;;5072837;28;20232;-74
2023/07/24 05:20:20;;;;;;;4.63;3.10;;;22.80;95.60;;;;;;5071874;28;20242;-72
2023/07/24 05:23:09;;;;;;;6.13;4.10;;;22.90;96.00;;;;;;5060192;28;20220;-73
2023/07/24 05:26:00;;;;;;;6.47;3.13;;;22.70;96.20;;;;;;5075385;28;20228;-73
2023/07/24 05:28:50;;;;;;;3.53;3.13;;;22.70;95.80;;;;;;5061694;28;20247;-72
2023/07/24 05:31:38;;;;;;;7.70;4.05;;;22.70;96.50;;;;;;5050773;28;20228;-72
2023/07/24 05:34:27;;;;;;;5.60;3.40;;;22.70;96.50;;;;;;5075689;28;20213;-73
2023/07/24 05:37:16;;;;;;;7.53;3.85;;;22.80;97.20;;;;;;5071174;28;20667;-72
2023/07/24 05:40:07;;;;;;;7.65;3.97;;;22.70;96.70;;;;;;5078450;28;20729;-73
2023/07/24 05:42:58;;;;;;;5.00;3.50;;;22.70;96.20;;;;;;5060696;28;20246;-72
2023/07/24 05:45:47;;;;;;;7.43;3.78;;;22.70;95.70;;;;;;5076780;28;20232;-73
2023/07/24 05:48:36;;;;;;;7.00;3.65;;;22.70;95.80;;;;;;5073784;28;20242;-73
2023/07/24 05:51:25;;;;;;;4.93;3.40;;;22.70;96.70;;;;;;5061569;28;20235;-73
2023/07/24 05:54:14;;;;;;;5.35;4.00;;;22.70;97.20;;;;;;5086057;28;20231;-73
2023/07/24 05:57:02;;;;;;;8.85;4.10;;;22.80;97.20;;;;;;5097353;28;20228;-73
2023/07/24 05:59:53;;;;;;;5.15;3.42;;;22.80;97.00;;;;;;5074915;28;20326;-72
2023/07/24 06:02:41;;;;;;;5.15;3.53;;;22.80;96.70;;;;;;5068976;28;20224;-73
2023/07/24 06:05:30;;;;;;;5.20;3.60;;;22.90;96.20;;;;;;5076378;28;20299;-72
2023/07/24 06:08:19;;;;;;;7.07;3.63;;;23.00;95.60;;;;;;5080677;28;20247;-74
2023/07/24 06:11:10;;;;;;;7.03;3.50;;;23.10;96.00;;;;;;5059917;28;20762;-76
2023/07/24 06:13:59;;;;;;;5.38;3.45;;;23.20;95.70;;;;;;5074839;28;20814;-75
2023/07/24 06:16:49;;;;;;;6.60;3.95;;;23.10;96.10;;;;;;5077649;28;20231;-75
2023/07/24 06:19:38;;;;;;;7.22;3.67;;;22.90;95.40;;;;;;5063849;28;20630;-75
2023/07/24 06:22:27;;;;;;;9.45;3.85;;;22.90;96.90;;;;;;5064666;28;20235;-78
2023/07/24 06:25:16;;;;;;;6.15;3.80;;;22.90;96.10;;;;;;5044069;28;20684;-76
2023/07/24 06:28:05;;;;;;;11.40;3.80;;;23.00;96.30;;;;;;5069326;28;20235;-78
2023/07/24 06:30:54;;;;;;;5.28;3.35;;;22.90;96.20;;;;;;5064099;28;20927;-77
2023/07/24 06:33:49;;;;;;;6.82;3.10;;;23.00;96.00;;;;;;5062446;28;20235;-78
2023/07/24 06:36:37;;;;;;;6.03;3.33;;;23.10;95.70;;;;;;5072109;28;20211;-76
2023/07/24 06:39:28;;;;;;;5.22;3.30;;;23.20;95.30;;;;;;5062939;28;20567;-77
2023/07/24 06:42:17;;;;;;;7.43;3.40;;;23.30;97.50;;;;;;5076650;28;20239;-77
2023/07/24 06:45:07;;;;;;;8.57;3.30;;;23.40;96.30;;;;;;5075162;28;20247;-77
2023/07/24 06:47:56;;;;;;;7.38;3.25;;;23.50;96.10;;;;;;5051721;28;20227;-77
2023/07/24 06:50:46;;;;;;;6.20;3.22;;;23.50;97.00;;;;;;5069783;28;20620;-77
2023/07/24 06:53:35;;;;;;;5.75;3.38;;;23.60;95.20;;;;;;5079738;28;20230;-77
2023/07/24 06:56:24;;;;;;;4.35;3.33;;;23.60;96.20;;;;;;5071591;28;20232;-77
2023/07/24 06:59:13;;;;;;;8.05;3.75;;;23.60;95.60;;;;;;5075491;28;20298;-78
2023/07/24 07:02:02;;;;;;;7.07;3.70;;;23.60;96.40;;;;;;5067061;28;20219;-78
2023/07/24 07:04:51;;;;;;;6.30;4.28;;;23.60;95.70;;;;;;5079976;28;20219;-77
2023/07/24 07:07:41;;;;;;;4.85;3.50;;;23.60;95.70;;;;;;5068229;28;20594;-76
2023/07/24 07:10:32;;;;;;;7.15;3.60;;;23.90;95.50;;;;;;5063653;28;20550;-76
2023/07/24 07:13:21;;;;;;;8.20;3.20;;;24.10;96.30;;;;;;5070765;28;20238;-75
2023/07/24 07:16:10;;;;;;;4.68;3.42;;;24.00;94.70;;;;;;5078572;28;20219;-77
2023/07/24 07:18:59;;;;;;;5.95;3.70;;;24.10;96.50;;;;;;5058682;28;20223;-77
2023/07/24 07:21:48;;;;;;;7.40;3.63;;;24.50;95.90;;;;;;5058414;28;20848;-76
2023/07/24 07:24:39;;;;;;;5.97;3.60;;;24.50;94.30;;;;;;5056061;28;20594;-77
2023/07/24 07:27:28;;;;;;;4.30;3.28;;;24.70;95.00;;;;;;5060357;28;20568;-78
2023/07/24 07:30:17;;;;;;;7.40;3.65;;;24.90;93.10;;;;;;5077722;28;20779;-76
2023/07/24 07:33:06;;;;;;;6.15;3.60;;;25.10;94.80;;;;;;5070943;28;20223;-77
2023/07/24 07:35:55;;;;;;;7.13;5.95;;;25.00;94.00;;;;;;5077247;28;20220;-78
2023/07/24 07:38:50;;;;;;;5.53;3.20;;;24.80;92.90;;;;;;5069265;28;20219;-75
2023/07/24 07:41:41;;;;;;;8.70;3.67;;;25.00;94.80;;;;;;5080554;28;20295;-75
2023/07/24 07:44:29;;;;;;;6.15;3.20;;;25.50;94.40;;;;;;5073898;28;20221;-76
2023/07/24 07:47:18;;;;;;;6.43;3.40;;;25.70;92.60;;;;;;5087006;28;20266;-75
2023/07/24 07:50:08;;;;;;;5.60;3.20;;;25.50;93.80;;;;;;5080467;28;20237;-76
2023/07/24 07:52:57;;;;;;;3.63;2.92;;;25.50;92.90;;;;;;5079021;28;20228;-76
2023/07/24 07:55:46;;;;;;;11.82;7.22;;;25.20;92.70;;;;;;5079556;28;20266;-77
2023/07/24 07:58:37;;;;;;;6.03;4.68;;;25.20;92.40;;;;;;5074812;28;20223;-77
2023/07/24 08:01:26;;;;;;;4.50;2.95;;;25.20;93.70;;;;;;5080841;28;20235;-80
2023/07/24 08:04:15;;;;;;;6.00;3.10;;;25.50;92.90;;;;;;5067439;28;20224;-86
2023/07/24 08:07:05;;;;;;;7.40;3.20;;;25.60;92.80;;;;;;5086586;28;20228;-85
2023/07/24 08:09:54;;;;;;;6.75;3.40;;;25.90;92.30;;;;;;5077086;28;20323;-83
2023/07/24 08:12:43;;;;;;;4.82;3.22;;;26.00;91.40;;;;;;5084792;28;20231;-81
2023/07/24 08:15:36;;;;;;;3.45;3.10;;;25.90;91.80;;;;;;5073776;28;20223;-81
2023/07/24 08:18:25;;;;;;;4.28;3.22;;;25.70;92.00;;;;;;5080768;28;20230;-84
2023/07/24 08:21:15;;;;;;;8.52;3.30;;;25.80;92.20;;;;;;5078575;28;20242;-77
2023/07/24 08:24:04;;;;;;;5.72;2.90;;;26.00;92.90;;;;;;5080088;28;20230;-77
2023/07/24 08:26:53;;;;;;;4.38;2.97;;;26.20;92.90;;;;;;5060557;28;20220;-78
2023/07/24 08:29:42;;;;;;;3.92;3.10;;;26.70;91.10;;;;;;5078732;28;20234;-77
2023/07/24 08:32:33;;;;;;;4.63;3.10;;;27.00;92.20;;;;;;5076776;28;20215;-75
2023/07/24 08:35:22;;;;;;;5.53;3.80;;;27.10;91.50;;;;;;5080548;28;20230;-83
2023/07/24 08:38:11;;;;;;;3.58;2.92;;;27.20;90.10;;;;;;5064189;28;20249;-83
2023/07/24 08:41:07;;;;;;;6.45;3.40;;;27.20;89.50;;;;;;5077177;28;20232;-84
2023/07/24 08:43:56;;;;;;;6.65;2.90;;;27.20;89.20;;;;;;5075068;28;20282;-82
2023/07/24 08:46:49;;;;;;;3.08;2.67;;;27.00;89.00;;;;;;5080583;28;20229;-80
2023/07/24 08:49:41;;;;;;;9.10;3.13;;;27.70;87.80;;;;;;5073332;28;20226;-77
2023/07/24 08:52:32;;;;;;;6.85;3.88;;;28.90;87.30;;;;;;5070322;28;20771;-77
2023/07/24 08:55:25;;;;;;;9.45;3.28;;;29.00;89.00;;;;;;5060848;28;20297;-78
2023/07/24 08:58:14;;;;;;;5.03;2.80;;;28.60;86.80;;;;;;5072667;28;20232;-79
2023/07/24 09:01:04;;;;;;;3.30;2.97;;;28.30;88.00;;;;;;5078477;28;20265;-78
2023/07/24 09:03:53;;;;;;;4.82;3.10;;;28.00;85.20;;;;;;5079745;28;20219;-79
2023/07/24 09:06:45;;;;;;;5.78;3.08;;;27.90;86.00;;;;;;5074434;28;20274;-78
2023/07/24 09:09:36;;;;;;;4.50;2.78;;;28.30;86.50;;;;;;5081542;28;20243;-77
2023/07/24 09:12:25;;;;;;;3.38;2.65;;;28.00;86.10;;;;;;5068884;28;20250;-78
2023/07/24 09:15:13;;;;;;;3.40;3.00;;;28.20;86.50;;;;;;5069547;28;20224;-78
2023/07/24 09:18:02;;;;;;;3.65;3.17;;;28.40;85.40;;;;;;5079556;28;20737;-79
2023/07/24 09:20:52;;;;;;;4.07;2.90;;;28.50;88.40;;;;;;5062195;28;20705;-78
2023/07/24 09:23:43;;;;;;;6.55;3.28;;;29.00;84.70;;;;;;5066255;28;20230;-77
2023/07/24 09:26:32;;;;;;;4.88;2.95;;;29.70;84.60;;;;;;5066303;28;20223;-77
2023/07/24 09:29:22;;;;;;;3.78;2.95;;;30.70;84.50;;;;;;5078385;28;20210;-78
2023/07/24 09:32:20;;;;;;;5.03;4.13;;;31.20;82.70;;;;;;5077095;28;20223;-79
2023/07/24 09:35:18;;;;;;;3.10;2.70;;;30.70;82.00;;;;;;5079585;28;20226;-79
2023/07/24 09:38:08;;;;;;;3.95;3.08;;;29.90;83.50;;;;;;5064723;28;20662;-78
2023/07/24 09:41:02;;;;;;;6.47;5.18;;;29.60;85.00;;;;;;5081896;28;20348;-79
2023/07/24 09:43:59;;;;;;;5.90;3.33;;;28.90;84.80;;;;;;5075629;28;20223;-79
2023/07/24 09:46:49;;;;;;;5.07;3.10;;;28.50;87.70;;;;;;5077282;28;20691;-76
2023/07/24 09:49:57;;;;;;;3.60;3.10;;;28.40;88.10;;;;;;5081466;28;20716;-79
2023/07/24 09:52:48;;;;;;;4.30;3.10;;;28.60;87.30;;;;;;5067237;28;20224;-78
2023/07/24 09:55:49;;;;;;;6.03;3.20;;;28.90;83.20;;;;;;5069671;28;20227;-83
2023/07/24 09:58:41;;;;;;;4.00;3.35;;;29.00;83.20;;;;;;5038758;28;20556;-84
2023/07/24 10:01:33;;;;;;;5.10;3.13;;;29.00;83.60;;;;;;5058349;28;20324;-87
2023/07/24 10:04:25;;;;;;;4.72;3.08;;;29.20;85.60;;;;;;5049382;28;20220;-86
2023/07/24 10:07:15;;;;;;;4.10;3.05;;;29.50;85.80;;;;;;5027030;28;20275;-86
2023/07/24 10:10:06;;;;;;;6.00;3.08;;;29.30;85.20;;;;;;5061747;28;20224;-84
2023/07/24 10:12:56;;;;;;;3.83;3.00;;;28.90;84.20;;;;;;5036982;28;20321;-83
2023/07/24 10:15:50;;;;;;;6.65;3.38;;;28.80;90.30;;;;;;5045191;28;20223;-89
2023/07/24 10:18:45;;;;;;;8.40;3.88;;;28.90;87.20;;;;;;5056288;28;20619;-77
2023/07/24 10:21:36;;;;;;;8.60;3.10;;;29.40;86.00;;;;;;5059361;28;20312;-79
2023/07/24 10:24:30;;;;;;;4.50;3.63;;;29.50;84.40;;;;;;5054086;28;20306;-78
2023/07/24 10:27:29;;;;;;;3.58;3.00;;;29.40;86.20;;;;;;5043614;28;20620;-77
2023/07/24 10:30:28;;;;;;;5.32;3.05;;;29.60;81.00;;;;;;5045275;28;20232;-78
2023/07/24 10:33:25;;;;;;;7.75;3.40;;;29.20;82.50;;;;;;5049775;28;20699;-77
2023/07/24 10:36:19;;;;;;;10.80;7.63;;;29.20;83.20;;;;;;5039839;28;20262;-78
2023/07/24 10:39:15;;;;;;;4.82;3.08;;;29.00;86.20;;;;;;5044339;28;20223;-78
2023/07/24 10:42:07;;;;;;;7.93;3.63;;;28.90;83.50;;;;;;5048448;28;20234;-77
2023/07/24 10:45:06;;;;;;;5.00;3.50;;;28.80;83.10;;;;;;5044537;28;20256;-78
2023/07/24 10:47:55;;;;;;;6.05;3.45;;;28.60;80.60;;;;;;5054881;28;20858;-77
2023/07/24 10:50:48;;;;;;;4.30;3.72;;;28.40;79.80;;;;;;5044566;28;20219;-77
2023/07/24 10:53:44;;;;;;;4.72;3.58;;;28.30;80.10;;;;;;5054414;28;20226;-78
2023/07/24 10:56:37;;;;;;;6.45;3.63;;;28.20;80.40;;;;;;5041646;28;20228;-78
2023/07/24 10:59:38;;;;;;;6.97;3.65;;;28.00;81.20;;;;;;5046759;28;20235;-78
2023/07/24 11:02:27;;;;;;;4.47;3.63;;;27.90;80.90;;;;;;5055335;28;20949;-76
2023/07/24 11:05:17;;;;;;;4.93;3.33;;;27.90;80.90;;;;;;5044995;28;20238;-77
2023/07/24 11:08:14;;;;;;;5.47;3.90;;;27.90;81.30;;;;;;5037388;28;20220;-78
2023/07/24 11:11:07;;;;;;;4.07;3.42;;;27.90;83.10;;;;;;5041872;28;20224;-81
2023/07/24 11:13:56;;;;;;;4.05;3.10;;;27.90;79.80;;;;;;5060098;28;20223;-82
2023/07/24 11:16:50;;;;;;;6.18;3.60;;;28.70;79.40;;;;;;5061326;28;20241;-81
2023/07/24 11:19:39;;;;;;;6.80;3.70;;;33.90;72.30;;;;;;5061273;28;20625;-81
2023/07/24 11:22:28;;;;;;;7.72;3.67;;;36.10;65.20;;;;;;5067359;28;20215;-81
2023/07/24 11:25:19;;;;;;;4.00;3.60;;;35.70;65.40;;;;;;5055977;28;20251;-80
2023/07/24 11:28:21;;;;;;;4.13;3.70;;;36.60;61.20;;;;;;5059738;28;20234;-82
2023/07/24 11:31:11;;;;;;;3.38;3.08;;;34.40;61.90;;;;;;5055632;28;20223;-87
2023/07/24 11:34:00;;;;;;;6.38;3.60;;;33.10;65.90;;;;;;5057543;28;25826;-84
2023/07/24 11:36:50;;;;;;;3.90;3.50;;;35.00;64.80;;;;;;5061113;28;20219;-75
2023/07/24 11:39:39;;;;;;;8.90;4.03;;;37.40;62.30;;;;;;5061784;28;20228;-76
2023/07/24 11:42:29;;;;;;;6.38;3.67;;;38.40;63.00;;;;;;5058660;28;20723;-77
2023/07/24 11:45:19;;;;;;;3.78;3.47;;;39.90;57.80;;;;;;5058899;28;20421;-76
2023/07/24 11:48:11;;;;;;;3.78;3.42;;;42.20;55.50;;;;;;5046585;28;20227;-76
2023/07/24 11:51:00;;;;;;;10.80;3.28;;;42.50;56.40;;;;;;5043751;28;20216;-76
2023/07/24 11:53:49;;;;;;;4.30;3.38;;;44.30;52.80;;;;;;5042292;28;20219;-76
2023/07/24 11:56:38;;;;;;;3.85;3.20;;;44.40;49.60;;;;;;5064519;28;20895;-76
2023/07/24 11:59:28;;;;;;;3.53;3.03;;;46.80;50.30;;;;;;5080039;28;20264;-77
2023/07/24 12:02:17;;;;;;;4.57;3.33;;;47.30;46.60;;;;;;5062128;28;20599;-77
2023/07/24 12:05:07;;;;;;;4.60;3.40;;;47.60;45.10;;;;;;5066820;28;20227;-80
2023/07/24 12:07:56;;;;;;;5.10;3.28;;;46.40;43.90;;;;;;5075352;28;20226;-82
2023/07/24 12:10:52;;;;;;;9.32;8.38;;;42.70;47.90;;;;;;5071000;28;20334;-80
2023/07/24 12:13:41;;;;;;;6.28;5.40;;;41.90;51.60;;;;;;5072336;28;20254;-80
2023/07/24 12:16:34;;;;;;;3.47;3.10;;;38.50;51.70;;;;;;5065848;28;20695;-81
2023/07/24 12:19:23;;;;;;;3.85;3.30;;;36.80;53.70;;;;;;5074161;28;20233;-82
2023/07/24 12:22:12;;;;;;;3.67;3.30;;;37.80;52.80;;;;;;5076331;28;20246;-81
2023/07/24 12:25:01;;;;;;;7.70;3.20;;;36.20;54.30;;;;;;5064493;28;20334;-83
2023/07/24 12:27:50;;;;;;;3.55;3.25;;;40.10;52.70;;;;;;5079251;28;20465;-79
2023/07/24 12:30:39;;;;;;;3.95;3.17;;;43.10;49.70;;;;;;5065515;28;20211;-75
2023/07/24 12:33:29;;;;;;;3.92;3.50;;;44.90;47.40;;;;;;5080479;28;20212;-77
2023/07/24 12:36:19;;;;;;;4.10;3.70;;;46.60;46.70;;;;;;5073618;28;20224;-76
2023/07/24 12:39:07;;;;;;;5.93;3.13;;;46.70;45.80;;;;;;5072781;28;20343;-75
2023/07/24 12:41:56;;;;;;;4.68;3.15;;;45.80;45.10;;;;;;5052438;28;20219;-75
2023/07/24 12:44:45;;;;;;;6.60;3.50;;;43.10;45.30;;;;;;5075389;28;20261;-76
2023/07/24 12:47:35;;;;;;;3.85;3.50;;;39.30;50.30;;;;;;5056096;28;20225;-76
2023/07/24 12:50:26;;;;;;;6.78;3.28;;;37.10;52.60;;;;;;5057117;28;20218;-76
2023/07/24 12:53:15;;;;;;;3.75;3.30;;;35.40;54.40;;;;;;5066103;28;20329;-76
2023/07/24 12:56:08;;;;;;;3.83;3.03;;;34.30;56.30;;;;;;5062658;28;20223;-82
2023/07/24 12:58:57;;;;;;;3.88;3.17;;;33.20;57.20;;;;;;5062403;28;20257;-83
2023/07/24 13:01:49;;;;;;;3.17;2.90;;;32.80;59.00;;;;;;5064007;28;20231;-82
2023/07/24 13:04:38;;;;;;;5.97;3.47;;;32.50;60.10;;;;;;5063602;28;20223;-82
2023/07/24 13:07:29;;;;;;;4.93;3.42;;;32.30;59.90;;;;;;5063345;28;20230;-81
2023/07/24 13:10:18;;;;;;;4.90;3.50;;;32.20;60.30;;;;;;5068741;28;20215;-81
2023/07/24 13:13:08;;;;;;;4.60;3.60;;;32.00;61.10;;;;;;5084541;28;20594;-81
2023/07/24 13:15:58;;;;;;;5.78;3.90;;;32.00;63.50;;;;;;5071623;28;20241;-81
2023/07/24 13:18:47;;;;;;;4.93;3.75;;;31.80;63.00;;;;;;5074949;28;20227;-73
2023/07/24 13:21:36;;;;;;;6.43;3.90;;;31.90;62.20;;;;;;5057250;28;20603;-72
2023/07/24 13:24:28;;;;;;;5.70;3.95;;;31.80;64.00;;;;;;5075103;28;20229;-71
2023/07/24 13:27:18;;;;;;;6.43;3.90;;;31.50;65.00;;;;;;5058813;28;20716;-73
2023/07/24 13:30:08;;;;;;;9.05;4.30;;;31.20;63.50;;;;;;5062866;28;20229;-81
2023/07/24 13:32:57;;;;;;;8.13;4.00;;;31.00;63.70;;;;;;5075913;28;20631;-79
2023/07/24 13:35:47;;;;;;;3.80;3.47;;;31.10;63.80;;;;;;5071944;28;20223;-80
2023/07/24 13:38:36;;;;;;;4.65;4.10;;;31.20;64.20;;;;;;5059732;28;20685;-80
2023/07/24 13:41:26;;;;;;;4.45;3.63;;;31.10;64.60;;;;;;5056925;28;20232;-80
2023/07/24 13:44:16;;;;;;;5.07;3.90;;;31.00;65.30;;;;;;5057358;28;20227;-80
2023/07/24 13:47:06;;;;;;;4.47;3.70;;;30.80;65.00;;;;;;5062678;28;20595;-81
2023/07/24 13:49:55;;;;;;;8.63;4.07;;;30.70;65.00;;;;;;5069366;28;20224;-81
2023/07/24 13:52:44;;;;;;;6.40;3.78;;;30.80;65.40;;;;;;5059348;28;20219;-80
2023/07/24 13:55:35;;;;;;;5.53;3.88;;;30.70;65.60;;;;;;5072467;28;20214;-79
2023/07/24 13:58:25;;;;;;;6.45;3.83;;;30.80;66.50;;;;;;5070600;28;20518;-79
2023/07/24 14:01:14;;;;;;;6.68;4.25;;;30.80;65.00;;;;;;5076162;28;20995;-80
2023/07/24 14:04:03;;;;;;;6.85;3.88;;;30.80;65.20;;;;;;5080366;28;20234;-80
2023/07/24 14:06:53;;;;;;;10.30;4.57;;;30.70;66.20;;;;;;5067491;28;20230;-80
2023/07/24 14:09:42;;;;;;;5.32;4.00;;;30.70;64.10;;;;;;5079235;28;20735;-81
2023/07/24 14:12:31;;;;;;;6.60;4.50;;;30.60;63.80;;;;;;5071883;28;20253;-80
2023/07/24 14:15:22;;;;;;;5.90;3.80;;;30.40;65.90;;;;;;5058493;28;20223;-80
2023/07/24 14:18:11;;;;;;;5.38;3.92;;;30.30;63.30;;;;;;5078543;28;20602;-81
2023/07/24 14:21:00;;;;;;;5.78;3.25;;;30.10;62.60;;;;;;5065151;28;20223;-79
2023/07/24 14:23:49;;;;;;;12.95;4.47;;;30.20;62.10;;;;;;5061471;28;20215;-79
2023/07/24 14:26:38;;;;;;;6.20;5.60;;;30.20;64.20;;;;;;5066709;28;20828;-79
2023/07/24 14:29:27;;;;;;;5.75;4.40;;;30.00;64.40;;;;;;5054949;28;20227;-80
2023/07/24 14:32:18;;;;;;;9.98;4.22;;;29.90;65.40;;;;;;5076525;28;20277;-80
2023/07/24 14:35:08;;;;;;;6.30;3.60;;;29.90;65.40;;;;;;5071784;28;20219;-79
2023/07/24 14:37:57;;;;;;;4.78;3.50;;;29.80;64.40;;;;;;5055952;28;20279;-81
2023/07/24 14:40:45;;;;;;;4.15;3.75;;;29.80;64.20;;;;;;5056792;28;20223;-80
2023/07/24 14:43:38;;;;;;;4.43;3.92;;;29.80;63.50;;;;;;5065115;28;20223;-79